createdAt,value
2019-04-11T00:00:28.519Z,8.38
2019-04-11T00:01:38.702Z,8.38
2019-04-11T00:02:28.978Z,8.38
2019-04-11T00:03:29.228Z,8.41
2019-04-11T00:04:28.631Z,8.37
2019-04-11T00:05:28.665Z,8.33
2019-04-11T00:06:29.759Z,8.37
2019-04-11T00:07:28.716Z,8.34
2019-04-11T00:08:28.744Z,8.20
2019-04-11T00:09:28.773Z,8.20
2019-04-11T00:10:29.207Z,8.19
2019-04-11T00:11:28.829Z,8.22
2019-04-11T00:12:28.858Z,8.22
2019-04-11T00:13:31.491Z,8.19
2019-04-11T00:14:29.646Z,8.16
2019-04-11T00:15:28.941Z,8.16
2019-04-11T00:16:29.048Z,8.19
2019-04-11T00:17:30.037Z,8.16
2019-04-11T00:18:29.028Z,8.12
2019-04-11T00:19:29.471Z,8.05
2019-04-11T00:20:29.081Z,8.05
2019-04-11T00:21:29.109Z,8.08
2019-04-11T00:22:29.895Z,8.12
2019-04-11T00:23:30.214Z,8.05
2019-04-11T00:24:29.302Z,8.04
2019-04-11T00:25:29.220Z,8.05
2019-04-11T00:26:30.487Z,8.04
2019-04-11T00:27:29.275Z,8.01
2019-04-11T00:28:29.935Z,8.05
2019-04-11T00:29:30.289Z,8.00
2019-04-11T00:30:30.322Z,7.95
2019-04-11T00:31:30.570Z,7.89
2019-04-11T00:32:29.654Z,7.89
2019-04-11T00:33:29.959Z,7.87
2019-04-11T00:34:29.472Z,7.80
2019-04-11T00:35:29.500Z,7.79
2019-04-11T00:36:30.514Z,7.82
2019-04-11T00:37:29.555Z,7.69
2019-04-11T00:38:29.931Z,7.67
2019-04-11T00:39:29.925Z,7.64
2019-04-11T00:40:29.638Z,7.80
2019-04-11T00:41:30.809Z,7.75
2019-04-11T00:42:30.439Z,7.75
2019-04-11T00:43:35.872Z,7.64
2019-04-11T00:44:30.615Z,7.64
2019-04-11T00:45:29.801Z,7.75
2019-04-11T00:46:29.806Z,7.69
2019-04-11T00:47:31.119Z,7.74
2019-04-11T00:48:30.073Z,7.82
2019-04-11T00:49:30.384Z,7.75
2019-04-11T00:50:30.193Z,7.82
2019-04-11T00:51:29.945Z,7.93
2019-04-11T00:52:29.973Z,7.79
2019-04-11T00:53:30.000Z,7.79
2019-04-11T00:54:30.978Z,7.82
2019-04-11T00:55:30.101Z,7.80
2019-04-11T00:56:30.468Z,7.68
2019-04-11T00:57:30.704Z,7.71
2019-04-11T00:58:30.139Z,7.75
2019-04-11T00:59:30.166Z,7.80
2019-04-11T01:00:31.202Z,7.74
2019-04-11T01:01:31.513Z,7.75
2019-04-11T01:02:31.329Z,7.77
2019-04-11T01:03:30.511Z,7.83
2019-04-11T01:04:30.305Z,7.63
2019-04-11T01:05:30.331Z,7.82
2019-04-11T01:06:30.361Z,7.72
2019-04-11T01:07:31.130Z,7.77
2019-04-11T01:08:31.469Z,7.77
2019-04-11T01:09:30.604Z,7.80
2019-04-11T01:10:30.472Z,7.71
2019-04-11T01:11:30.500Z,7.77
2019-04-11T01:12:30.527Z,7.89
2019-04-11T01:13:41.702Z,7.80
2019-04-11T01:14:30.585Z,7.87
2019-04-11T01:15:31.385Z,7.93
2019-04-11T01:16:30.640Z,7.93
2019-04-11T01:17:31.574Z,7.98
2019-04-11T01:18:30.948Z,8.00
2019-04-11T01:19:30.954Z,8.00
2019-04-11T01:20:31.403Z,7.98
2019-04-11T01:21:30.778Z,7.98
2019-04-11T01:22:31.783Z,7.93
2019-04-11T01:23:31.109Z,8.00
2019-04-11T01:24:31.518Z,8.01
2019-04-11T01:25:30.890Z,7.98
2019-04-11T01:26:30.930Z,8.02
2019-04-11T01:27:32.042Z,8.00
2019-04-11T01:28:31.064Z,7.92
2019-04-11T01:29:31.382Z,8.00
2019-04-11T01:30:31.735Z,7.92
2019-04-11T01:31:31.054Z,7.93
2019-04-11T01:32:31.083Z,7.95
2019-04-11T01:33:31.770Z,7.86
2019-04-11T01:34:31.139Z,7.74
2019-04-11T01:35:31.169Z,7.82
2019-04-11T01:36:31.195Z,7.69
2019-04-11T01:37:31.449Z,7.80
2019-04-11T01:38:32.447Z,7.67
2019-04-11T01:39:31.278Z,7.83
2019-04-11T01:40:31.892Z,7.80
2019-04-11T01:41:31.433Z,7.77
2019-04-11T01:42:31.366Z,7.75
2019-04-11T01:43:32.431Z,7.77
2019-04-11T01:44:32.436Z,7.72
2019-04-11T01:45:31.703Z,7.67
2019-04-11T01:46:31.936Z,7.64
2019-04-11T01:47:31.500Z,7.57
2019-04-11T01:48:31.527Z,7.61
2019-04-11T01:49:32.356Z,7.53
2019-04-11T01:50:32.711Z,7.52
2019-04-11T01:51:31.774Z,7.53
2019-04-11T01:52:31.637Z,7.45
2019-04-11T01:53:31.666Z,7.49
2019-04-11T01:54:32.156Z,7.46
2019-04-11T01:55:32.558Z,7.46
2019-04-11T01:56:31.748Z,7.46
2019-04-11T01:57:31.813Z,7.39
2019-04-11T01:58:32.909Z,7.43
2019-04-11T01:59:31.830Z,7.34
2019-04-11T02:00:32.290Z,7.35
2019-04-11T02:01:32.685Z,7.30
2019-04-11T02:02:32.682Z,7.37
2019-04-11T02:03:32.991Z,7.25
2019-04-11T02:04:32.123Z,7.25
2019-04-11T02:05:32.826Z,7.24
2019-04-11T02:06:32.065Z,7.21
2019-04-11T02:07:32.052Z,7.27
2019-04-11T02:08:32.081Z,7.28
2019-04-11T02:09:32.447Z,7.35
2019-04-11T02:10:32.825Z,7.24
2019-04-11T02:11:32.164Z,7.20
2019-04-11T02:12:32.190Z,7.27
2019-04-11T02:13:32.231Z,7.31
2019-04-11T02:14:33.357Z,7.25
2019-04-11T02:15:32.452Z,7.16
2019-04-11T02:16:32.752Z,7.20
2019-04-11T02:17:32.874Z,7.13
2019-04-11T02:18:32.357Z,7.17
2019-04-11T02:19:32.382Z,7.20
2019-04-11T02:20:33.347Z,7.25
2019-04-11T02:21:33.615Z,7.16
2019-04-11T02:22:32.740Z,7.16
2019-04-11T02:23:32.495Z,7.25
2019-04-11T02:24:32.534Z,7.15
2019-04-11T02:25:32.549Z,7.15
2019-04-11T02:26:33.529Z,7.16
2019-04-11T02:27:32.741Z,7.13
2019-04-11T02:28:32.854Z,7.15
2019-04-11T02:29:33.295Z,7.06
2019-04-11T02:30:33.978Z,6.99
2019-04-11T02:31:32.763Z,7.07
2019-04-11T02:32:34.372Z,7.09
2019-04-11T02:33:32.983Z,7.09
2019-04-11T02:34:32.797Z,6.99
2019-04-11T02:35:32.824Z,7.02
2019-04-11T02:36:34.201Z,7.07
2019-04-11T02:37:34.350Z,7.07
2019-04-11T02:38:34.696Z,7.09
2019-04-11T02:39:35.288Z,7.02
2019-04-11T02:40:32.969Z,7.02
2019-04-11T02:41:35.111Z,6.92
2019-04-11T02:42:33.597Z,6.92
2019-04-11T02:43:34.281Z,6.95
2019-04-11T02:44:51.019Z,6.97
2019-04-11T02:45:45.200Z,6.92
2019-04-11T02:46:42.458Z,6.89
2019-04-11T02:47:35.251Z,6.92
2019-04-11T02:48:35.279Z,6.88
2019-04-11T02:49:35.061Z,6.73
2019-04-11T02:50:34.447Z,6.85
2019-04-11T02:51:34.535Z,6.80
2019-04-11T02:52:33.631Z,6.74
2019-04-11T02:53:34.368Z,6.81
2019-04-11T02:54:33.823Z,6.70
2019-04-11T02:56:35.669Z,6.59
2019-04-11T02:57:34.349Z,6.55
2019-04-11T02:58:34.545Z,6.54
2019-04-11T02:59:34.491Z,6.51
2019-04-11T03:00:35.461Z,6.44
2019-04-11T03:01:34.079Z,6.34
2019-04-11T03:02:34.733Z,6.31
2019-04-11T03:03:34.126Z,6.31
2019-04-11T03:04:34.747Z,6.22
2019-04-11T03:05:35.214Z,6.27
2019-04-11T03:06:35.250Z,6.18
2019-04-11T03:07:34.132Z,6.21
2019-04-11T03:08:36.146Z,6.12
2019-04-11T03:09:35.126Z,6.09
2019-04-11T03:10:35.507Z,6.19
2019-04-11T03:11:34.642Z,6.11
2019-04-11T03:12:35.905Z,6.08
2019-04-11T03:13:35.331Z,6.00
2019-04-11T03:14:54.483Z,6.00
2019-04-11T03:15:48.721Z,5.97
2019-04-11T03:16:46.736Z,5.96
2019-04-11T03:17:40.063Z,5.90
2019-04-11T03:18:53.174Z,5.85
2019-04-11T03:19:49.100Z,5.89
2019-04-11T03:20:40.729Z,5.89
2019-04-11T03:21:39.146Z,5.82
2019-04-11T03:22:34.591Z,5.86
2019-04-11T03:23:35.461Z,5.89
2019-04-11T03:24:35.909Z,5.81
2019-04-11T03:25:34.180Z,5.79
2019-04-11T03:26:35.478Z,5.82
2019-04-11T03:27:34.952Z,5.85
2019-04-11T03:28:36.443Z,5.86
2019-04-11T03:29:36.221Z,5.91
2019-04-11T03:30:57.336Z,5.96
2019-04-11T03:32:13.596Z,5.91
2019-04-11T03:33:40.215Z,5.96
2019-04-11T03:36:22.135Z,5.99
2019-04-11T03:37:13.689Z,5.94
2019-04-11T03:38:00.386Z,6.08
2019-04-11T03:38:55.491Z,6.01
2019-04-11T03:39:56.842Z,6.01
2019-04-11T03:40:50.504Z,6.17
2019-04-11T03:41:53.686Z,6.14
2019-04-11T03:42:47.920Z,6.15
2019-04-11T03:43:45.883Z,6.15
2019-04-11T03:44:41.744Z,6.18
2019-04-11T03:45:56.293Z,6.11
2019-04-11T03:46:51.138Z,6.15
2019-04-11T03:47:50.530Z,6.06
2019-04-11T03:48:49.633Z,6.08
2019-04-11T03:49:41.982Z,6.15
2019-04-11T03:50:37.106Z,6.19
2019-04-11T03:51:36.503Z,6.12
2019-04-11T03:52:34.906Z,6.11
2019-04-11T03:53:37.053Z,6.06
2019-04-11T03:54:36.725Z,6.03
2019-04-11T03:55:35.095Z,6.08
2019-04-11T03:56:35.194Z,5.97
2019-04-11T03:57:35.047Z,6.00
2019-04-11T03:58:35.064Z,6.00
2019-04-11T03:59:36.637Z,5.93
2019-04-11T04:00:38.278Z,5.89
2019-04-11T04:01:35.550Z,5.85
2019-04-11T04:02:37.123Z,5.82
2019-04-11T04:03:36.600Z,5.65
2019-04-11T04:04:35.678Z,5.67
2019-04-11T04:05:36.945Z,5.67
2019-04-11T04:09:12.960Z,5.65
2019-04-11T04:10:13.258Z,5.57
2019-04-11T04:11:12.310Z,5.60
2019-04-11T04:12:12.051Z,5.64
2019-04-11T04:13:16.146Z,5.71
2019-04-11T04:14:12.644Z,5.71
2019-04-11T04:15:23.780Z,5.61
2019-04-11T04:16:18.683Z,5.61
2019-04-11T04:17:11.429Z,5.64
2019-04-11T04:18:12.942Z,5.61
2019-04-11T04:19:15.195Z,5.57
2019-04-11T04:20:12.794Z,5.42
2019-04-11T04:21:11.481Z,5.42
2019-04-11T04:22:13.398Z,5.38
2019-04-11T04:23:12.384Z,5.43
2019-04-11T04:24:11.560Z,5.28
2019-04-11T04:25:12.400Z,5.31
2019-04-11T04:26:12.299Z,5.30
2019-04-11T04:27:13.022Z,5.33
2019-04-11T04:28:12.222Z,5.21
2019-04-11T04:29:12.003Z,5.25
2019-04-11T04:30:13.721Z,5.13
2019-04-11T04:31:11.771Z,5.09
2019-04-11T04:32:12.105Z,5.06
2019-04-11T04:33:12.959Z,5.09
2019-04-11T04:34:11.874Z,5.04
2019-04-11T04:35:16.750Z,5.03
2019-04-11T04:36:13.880Z,5.00
2019-04-11T04:37:12.119Z,5.00
2019-04-11T04:38:13.625Z,4.92
2019-04-11T04:39:12.600Z,4.92
2019-04-11T04:40:28.390Z,4.94
2019-04-11T04:41:22.357Z,4.91
2019-04-11T04:42:21.895Z,4.84
2019-04-11T04:43:12.095Z,4.84
2019-04-11T04:44:12.588Z,4.80
2019-04-11T04:45:14.131Z,4.72
2019-04-11T04:46:30.029Z,4.73
2019-04-11T04:47:21.084Z,4.67
2019-04-11T04:48:15.920Z,4.72
2019-04-11T04:49:15.309Z,4.66
2019-04-11T04:50:13.411Z,4.65
2019-04-11T04:51:15.232Z,4.65
2019-04-11T04:52:14.290Z,4.72
2019-04-11T04:53:13.708Z,4.63
2019-04-11T04:54:12.344Z,4.69
2019-04-11T04:55:12.939Z,4.66
2019-04-11T04:56:13.409Z,4.72
2019-04-11T04:57:13.196Z,4.65
2019-04-11T04:58:13.153Z,4.65
2019-04-11T04:59:14.648Z,4.66
2019-04-11T05:00:14.292Z,4.67
2019-04-11T05:01:12.824Z,4.69
2019-04-11T05:02:12.912Z,4.66
2019-04-11T05:03:13.503Z,4.55
2019-04-11T05:04:13.961Z,4.66
2019-04-11T05:05:13.616Z,4.62
2019-04-11T05:06:14.207Z,4.67
2019-04-11T05:07:12.683Z,4.59
2019-04-11T05:08:14.352Z,4.54
2019-04-11T05:09:12.933Z,4.55
2019-04-11T05:10:13.447Z,4.54
2019-04-11T05:11:13.973Z,4.52
2019-04-11T05:12:13.876Z,4.50
2019-04-11T05:13:13.618Z,4.51
2019-04-11T05:14:14.526Z,4.52
2019-04-11T05:15:14.434Z,4.45
2019-04-11T05:16:17.265Z,4.45
2019-04-11T05:17:12.961Z,4.44
2019-04-11T05:18:15.597Z,4.47
2019-04-11T05:19:12.992Z,4.45
2019-04-11T05:20:14.065Z,4.45
2019-04-11T05:21:13.045Z,4.34
2019-04-11T05:22:13.070Z,4.41
2019-04-11T05:23:13.923Z,4.36
2019-04-11T05:24:13.125Z,4.40
2019-04-11T05:25:13.148Z,4.45
2019-04-11T05:26:13.174Z,4.41
2019-04-11T05:27:13.199Z,4.40
2019-04-11T05:28:13.981Z,4.34
2019-04-11T05:29:13.259Z,4.41
2019-04-11T05:30:14.581Z,4.40
2019-04-11T05:31:14.326Z,4.32
2019-04-11T05:32:13.414Z,4.34
2019-04-11T05:33:13.627Z,4.34
2019-04-11T05:34:13.948Z,4.37
2019-04-11T05:35:14.391Z,4.34
2019-04-11T05:36:14.381Z,4.40
2019-04-11T05:37:13.457Z,4.40
2019-04-11T05:38:13.535Z,4.50
2019-04-11T05:39:15.602Z,4.40
2019-04-11T05:40:14.646Z,4.44
2019-04-11T05:41:13.902Z,4.45
2019-04-11T05:42:17.786Z,4.50
2019-04-11T05:43:13.621Z,4.47
2019-04-11T05:44:14.614Z,4.58
2019-04-11T05:45:19.084Z,4.77
2019-04-11T05:46:26.432Z,4.85
2019-04-11T05:47:18.122Z,4.99
2019-04-11T05:49:16.935Z,5.12
2019-04-11T05:50:16.356Z,5.24
2019-04-11T05:51:21.180Z,5.20
2019-04-11T05:52:17.684Z,5.25
2019-04-11T05:53:18.921Z,5.42
2019-04-11T05:54:16.527Z,5.38
2019-04-11T05:55:17.566Z,5.30
2019-04-11T05:56:18.749Z,5.46
2019-04-11T05:57:21.757Z,5.51
2019-04-11T05:58:17.569Z,5.61
2019-04-11T05:59:17.231Z,5.60
2019-04-11T06:00:16.618Z,5.60
2019-04-11T06:01:16.645Z,5.65
2019-04-11T06:02:17.202Z,5.72
2019-04-11T06:03:17.658Z,5.63
2019-04-11T06:04:20.955Z,5.72
2019-04-11T06:05:17.299Z,5.76
2019-04-11T06:06:16.772Z,5.65
2019-04-11T06:07:16.831Z,5.76
2019-04-11T06:08:23.523Z,5.89
2019-04-11T06:09:16.851Z,5.85
2019-04-11T06:10:17.799Z,5.86
2019-04-11T06:11:20.869Z,5.93
2019-04-11T06:12:17.187Z,5.91
2019-04-11T06:13:16.957Z,5.91
2019-04-11T06:14:17.302Z,6.01
2019-04-11T06:15:19.633Z,5.97
2019-04-11T06:16:17.035Z,6.00
2019-04-11T06:17:18.369Z,6.03
2019-04-11T06:18:26.219Z,6.14
2019-04-11T06:19:17.116Z,6.19
2019-04-11T06:20:17.745Z,6.17
2019-04-11T06:21:17.922Z,6.12
2019-04-11T06:22:19.673Z,6.12
2019-04-11T06:23:17.220Z,6.25
2019-04-11T06:24:18.196Z,6.40
2019-04-11T06:25:19.248Z,6.43
2019-04-11T06:26:18.750Z,6.58
2019-04-11T06:27:17.324Z,6.67
2019-04-11T06:28:18.030Z,6.56
2019-04-11T06:29:24.378Z,6.73
2019-04-11T06:30:17.883Z,6.77
2019-04-11T06:31:18.121Z,6.89
2019-04-11T06:32:17.457Z,6.74
2019-04-11T06:33:18.504Z,6.85
2019-04-11T06:34:17.623Z,6.95
2019-04-11T06:35:17.738Z,6.88
2019-04-11T06:36:18.087Z,6.92
2019-04-11T06:37:17.590Z,7.03
2019-04-11T06:38:18.505Z,7.12
2019-04-11T06:39:18.941Z,7.06
2019-04-11T06:40:18.094Z,7.17
2019-04-11T06:41:18.742Z,7.09
2019-04-11T06:42:17.724Z,6.92
2019-04-11T06:43:18.349Z,6.84
2019-04-11T06:44:17.777Z,6.91
2019-04-11T06:45:17.804Z,6.92
2019-04-11T06:46:18.797Z,7.05
2019-04-11T06:47:18.805Z,7.17
2019-04-11T06:48:17.885Z,7.15
2019-04-11T06:49:18.333Z,7.17
2019-04-11T06:50:17.937Z,7.05
2019-04-11T06:51:17.963Z,7.15
2019-04-11T06:52:18.891Z,7.20
2019-04-11T06:53:18.889Z,7.17
2019-04-11T06:54:19.064Z,7.25
2019-04-11T06:55:18.287Z,7.50
2019-04-11T06:56:18.969Z,7.46
2019-04-11T06:57:18.126Z,7.40
2019-04-11T06:58:19.228Z,7.55
2019-04-11T06:59:18.478Z,7.52
2019-04-11T07:00:18.205Z,7.49
2019-04-11T07:01:18.259Z,7.52
2019-04-11T07:02:21.334Z,7.48
2019-04-11T07:03:23.173Z,7.61
2019-04-11T07:04:18.313Z,7.49
2019-04-11T07:05:18.408Z,7.50
2019-04-11T07:06:19.527Z,7.48
2019-04-11T07:07:18.531Z,7.40
2019-04-11T07:08:18.420Z,7.57
2019-04-11T07:09:18.447Z,7.55
2019-04-11T07:10:18.474Z,7.52
2019-04-11T07:11:18.501Z,7.68
2019-04-11T07:12:18.529Z,7.69
2019-04-11T07:13:18.556Z,7.67
2019-04-11T07:14:18.583Z,7.61
2019-04-11T07:15:18.764Z,7.77
2019-04-11T07:16:19.917Z,7.93
2019-04-11T07:17:18.921Z,7.83
2019-04-11T07:18:18.691Z,7.98
2019-04-11T07:19:19.773Z,8.20
2019-04-11T07:20:18.747Z,8.20
2019-04-11T07:21:19.082Z,7.98
2019-04-11T07:22:18.800Z,7.85
2019-04-11T07:23:20.049Z,7.97
2019-04-11T07:24:18.858Z,8.10
2019-04-11T07:25:20.217Z,7.98
2019-04-11T07:26:18.953Z,8.11
2019-04-11T07:27:20.106Z,8.29
2019-04-11T07:28:18.965Z,8.34
2019-04-11T07:29:19.449Z,8.34
2019-04-11T07:30:19.343Z,8.23
2019-04-11T07:31:19.333Z,8.04
2019-04-11T07:32:20.224Z,8.11
2019-04-11T07:33:20.177Z,8.26
2019-04-11T07:34:19.478Z,8.15
2019-04-11T07:35:19.340Z,8.19
2019-04-11T07:36:20.873Z,8.33
2019-04-11T07:37:19.256Z,8.36
2019-04-11T07:38:20.891Z,8.37
2019-04-11T07:39:20.164Z,8.62
2019-04-11T07:40:19.499Z,8.50
2019-04-11T07:41:19.644Z,8.61
2019-04-11T07:42:19.351Z,8.53
2019-04-11T07:43:19.556Z,8.50
2019-04-11T07:44:19.643Z,8.53
2019-04-11T07:45:19.434Z,8.50
2019-04-11T07:46:19.461Z,8.81
2019-04-11T07:47:23.426Z,8.91
2019-04-11T07:48:19.517Z,9.17
2019-04-11T07:49:19.895Z,9.29
2019-04-11T07:50:20.190Z,9.29
2019-04-11T07:51:19.724Z,9.48
2019-04-11T07:52:20.444Z,9.66
2019-04-11T07:53:19.809Z,9.83
2019-04-11T07:54:20.268Z,9.91
2019-04-11T07:55:19.715Z,10.07
2019-04-11T07:56:20.807Z,10.15
2019-04-11T07:57:19.774Z,10.08
2019-04-11T07:58:19.801Z,10.27
2019-04-11T07:59:19.832Z,10.09
2019-04-11T08:00:33.449Z,10.17
2019-04-11T08:01:21.076Z,10.32
2019-04-11T08:02:20.514Z,10.42
2019-04-11T08:03:21.191Z,10.44
2019-04-11T08:04:19.969Z,10.52
2019-04-11T08:05:19.998Z,10.74
2019-04-11T08:06:20.070Z,10.60
2019-04-11T08:07:20.055Z,10.64
2019-04-11T08:08:21.225Z,10.61
2019-04-11T08:09:20.113Z,10.66
2019-04-11T08:10:20.584Z,10.73
2019-04-11T08:11:20.170Z,10.56
2019-04-11T08:12:21.131Z,10.70
2019-04-11T08:13:20.709Z,10.88
2019-04-11T08:14:20.331Z,10.96
2019-04-11T08:15:20.286Z,11.11
2019-04-11T08:16:20.446Z,10.97
2019-04-11T08:17:28.013Z,11.11
2019-04-11T08:18:20.864Z,11.15
2019-04-11T08:19:21.057Z,11.11
2019-04-11T08:20:21.377Z,11.03
2019-04-11T08:21:20.464Z,11.00
2019-04-11T08:22:21.021Z,11.03
2019-04-11T08:23:21.385Z,11.00
2019-04-11T08:24:20.563Z,11.10
2019-04-11T08:25:20.913Z,11.21
2019-04-11T08:26:20.607Z,11.28
2019-04-11T08:27:20.634Z,11.43
2019-04-11T08:28:20.682Z,11.61
2019-04-11T08:29:20.693Z,11.75
2019-04-11T08:30:20.724Z,11.58
2019-04-11T08:31:21.556Z,11.46
2019-04-11T08:32:21.975Z,11.52
2019-04-11T08:33:20.811Z,11.47
2019-04-11T08:34:21.877Z,11.67
2019-04-11T08:35:20.870Z,11.75
2019-04-11T08:36:22.023Z,11.75
2019-04-11T08:37:21.193Z,11.78
2019-04-11T08:38:20.959Z,11.78
2019-04-11T08:39:20.988Z,12.07
2019-04-11T08:40:21.860Z,12.16
2019-04-11T08:41:21.049Z,12.37
2019-04-11T08:42:21.337Z,12.64
2019-04-11T08:43:21.387Z,12.47
2019-04-11T08:44:21.138Z,12.52
2019-04-11T08:45:21.565Z,12.45
2019-04-11T08:46:21.206Z,12.57
2019-04-11T08:47:22.426Z,12.49
2019-04-11T08:48:21.276Z,12.34
2019-04-11T08:49:21.578Z,12.38
2019-04-11T08:50:21.318Z,12.47
2019-04-11T08:51:21.348Z,12.38
2019-04-11T08:52:22.506Z,12.32
2019-04-11T08:53:21.418Z,12.35
2019-04-11T08:54:21.623Z,12.54
2019-04-11T08:55:21.471Z,12.67
2019-04-11T08:56:21.506Z,12.74
2019-04-11T08:58:22.625Z,12.92
2019-04-11T08:59:21.621Z,13.03
2019-04-11T09:01:22.245Z,13.28
2019-04-11T09:02:21.687Z,13.01
2019-04-11T09:03:21.771Z,12.95
2019-04-11T09:04:21.911Z,12.90
2019-04-11T09:05:22.780Z,12.79
2019-04-11T09:06:22.922Z,12.86
2019-04-11T09:07:21.864Z,13.03
2019-04-11T09:08:23.310Z,12.82
2019-04-11T09:09:23.124Z,12.97
2019-04-11T09:10:22.014Z,13.08
2019-04-11T09:11:22.539Z,12.89
2019-04-11T09:12:22.551Z,13.08
2019-04-11T09:13:22.964Z,13.10
2019-04-11T09:14:22.243Z,13.12
2019-04-11T09:15:22.091Z,12.97
2019-04-11T09:16:22.123Z,12.96
2019-04-11T09:17:23.318Z,13.17
2019-04-11T09:18:22.211Z,13.20
2019-04-11T09:19:23.051Z,13.59
2019-04-11T09:20:23.366Z,13.73
2019-04-11T09:21:22.355Z,13.54
2019-04-11T09:22:22.643Z,14.00
2019-04-11T09:23:22.344Z,14.32
2019-04-11T09:24:22.379Z,14.96
2019-04-11T09:25:23.294Z,15.49
2019-04-11T09:26:23.535Z,16.28
2019-04-11T09:27:22.705Z,16.68
2019-04-11T09:28:22.514Z,17.08
2019-04-11T09:29:26.140Z,17.99
2019-04-11T09:30:23.066Z,18.27
2019-04-11T09:31:22.608Z,18.91
2019-04-11T09:32:22.641Z,18.87
2019-04-11T09:33:22.770Z,19.16
2019-04-11T09:34:23.788Z,19.44
2019-04-11T09:35:24.100Z,19.81
2019-04-11T09:36:23.893Z,19.83
2019-04-11T09:37:22.819Z,19.06
2019-04-11T09:38:22.854Z,19.62
2019-04-11T09:39:23.385Z,19.96
2019-04-11T09:40:23.929Z,20.59
2019-04-11T09:41:22.964Z,20.33
2019-04-11T09:42:23.143Z,21.03
2019-04-11T09:43:24.455Z,21.54
2019-04-11T09:44:23.077Z,22.39
2019-04-11T09:45:23.684Z,22.45
2019-04-11T09:47:24.211Z,21.99
2019-04-11T09:48:24.590Z,22.33
2019-04-11T09:49:23.270Z,21.38
2019-04-11T09:50:24.541Z,21.22
2019-04-11T09:51:23.647Z,21.80
2019-04-11T09:52:23.411Z,22.57
2019-04-11T09:54:24.009Z,22.39
2019-04-11T09:56:23.547Z,20.94
2019-04-11T09:57:24.731Z,21.27
2019-04-11T09:58:23.646Z,21.65
2019-04-11T09:59:24.950Z,22.18
2019-04-11T10:00:23.713Z,21.82
2019-04-11T10:03:23.838Z,21.82
2019-04-11T10:04:25.517Z,19.95
2019-04-11T10:05:24.417Z,20.48
2019-04-11T10:06:23.960Z,20.36
2019-04-11T10:07:24.029Z,20.05
2019-04-11T10:08:24.578Z,20.33
2019-04-11T10:09:24.120Z,20.47
2019-04-11T10:12:24.411Z,21.58
2019-04-11T10:13:24.942Z,22.02
2019-04-11T10:14:24.294Z,21.71
2019-04-11T10:16:07.528Z,23.00
2019-04-11T10:17:06.936Z,22.09
2019-04-11T10:18:07.309Z,21.27
2019-04-11T10:19:07.584Z,21.12
2019-04-11T10:20:07.062Z,20.94
2019-04-11T10:22:07.148Z,21.35
2019-04-11T10:23:08.243Z,20.57
2019-04-11T10:24:14.419Z,20.89
2019-04-11T10:25:07.704Z,20.21
2019-04-11T10:27:50.956Z,21.38
2019-04-11T10:28:49.963Z,21.74
2019-04-11T10:30:33.527Z,22.15
2019-04-11T10:32:32.963Z,22.73
2019-04-11T10:33:33.192Z,22.91
2019-04-11T10:34:33.546Z,22.92
2019-04-11T10:35:36.516Z,23.72
2019-04-11T10:37:33.855Z,23.36
2019-04-11T10:38:32.939Z,23.05
2019-04-11T10:40:32.996Z,23.43
2019-04-11T10:41:34.681Z,23.25
2019-04-11T10:42:33.082Z,23.20
2019-04-11T10:43:34.160Z,23.58
2019-04-11T10:44:34.005Z,23.94
2019-04-11T10:48:39.283Z,22.85
2019-04-11T10:49:34.703Z,22.58
2019-04-11T10:51:50.394Z,22.79
2019-04-11T10:52:48.920Z,22.68
2019-04-11T10:53:47.039Z,23.55
2019-04-11T10:57:03.894Z,23.19
2019-04-11T10:58:04.800Z,23.17
2019-04-11T11:00:07.148Z,22.67
2019-04-11T11:01:04.070Z,23.43
2019-04-11T11:06:57.524Z,23.70
2019-04-11T11:08:55.485Z,23.61
2019-04-11T11:10:52.630Z,23.98
2019-04-11T11:12:51.730Z,23.93
2019-04-11T11:29:22.705Z,25.70
2019-04-11T11:30:23.099Z,25.75
2019-04-11T11:31:24.343Z,24.96
2019-04-11T11:32:23.071Z,24.99
2019-04-11T11:33:25.109Z,23.72
2019-04-11T11:36:23.538Z,24.35
2019-04-11T11:39:23.180Z,26.35
2019-04-11T11:40:23.910Z,26.44
2019-04-11T11:41:23.243Z,25.88
2019-04-11T11:42:23.292Z,25.52
2019-04-11T11:43:23.336Z,25.21
2019-04-11T11:44:24.475Z,25.40
2019-04-11T11:45:23.642Z,25.62
2019-04-11T11:46:26.742Z,26.15
2019-04-11T11:47:24.349Z,26.97
2019-04-11T11:48:24.804Z,25.82
2019-04-11T11:49:41.775Z,25.70
2019-04-11T11:50:23.913Z,25.80
2019-04-11T11:51:26.922Z,25.40
2019-04-11T11:52:24.791Z,25.73
2019-04-11T11:53:25.874Z,26.33
2019-04-11T11:54:24.064Z,27.03
2019-04-11T11:55:23.882Z,27.25
2019-04-11T11:56:24.135Z,27.36
2019-04-11T11:57:26.710Z,25.35
2019-04-11T11:58:24.020Z,23.91
2019-04-11T11:59:25.108Z,25.39
2019-04-11T12:00:27.341Z,25.79
2019-04-11T12:01:25.167Z,25.72
2019-04-11T12:02:24.607Z,25.79
2019-04-11T12:04:26.089Z,27.46
2019-04-11T12:05:26.396Z,28.19
2019-04-11T12:06:29.215Z,28.46
2019-04-11T12:07:25.183Z,28.15
2019-04-11T12:08:27.130Z,27.00
2019-04-11T12:10:24.574Z,27.17
2019-04-11T12:11:24.622Z,26.45
2019-04-11T12:12:24.722Z,25.87
2019-04-11T12:13:28.341Z,26.12
2019-04-11T12:14:29.526Z,26.94
2019-04-11T12:15:26.834Z,26.84
2019-04-11T12:16:25.913Z,26.50
2019-04-11T12:18:24.947Z,25.87
2019-04-11T12:19:25.032Z,26.28
2019-04-11T12:20:25.059Z,26.02
2019-04-11T12:21:27.852Z,26.67
2019-04-11T12:22:25.319Z,26.18
2019-04-11T12:23:25.985Z,25.47
2019-04-11T12:24:25.361Z,24.52
2019-04-11T12:26:28.808Z,24.35
2019-04-11T12:28:25.781Z,25.73
2019-04-11T12:29:27.243Z,25.90
2019-04-11T12:33:25.790Z,25.46
2019-04-11T12:35:27.076Z,25.50
2019-04-11T12:36:26.442Z,25.54
2019-04-11T12:37:25.839Z,26.58
2019-04-11T12:38:25.917Z,27.03
2019-04-11T12:39:25.931Z,26.72
2019-04-11T12:40:25.981Z,25.91
2019-04-11T12:41:26.024Z,26.12
2019-04-11T12:42:26.064Z,24.85
2019-04-11T12:43:26.117Z,24.81
2019-04-11T12:44:29.131Z,23.54
2019-04-11T12:45:26.213Z,24.71
2019-04-11T12:46:30.057Z,24.69
2019-04-11T12:47:26.387Z,25.73
2019-04-11T12:48:27.065Z,25.60
2019-04-11T12:49:26.621Z,25.60
2019-04-11T12:50:26.448Z,25.70
2019-04-11T12:51:26.497Z,26.23
2019-04-11T12:52:26.516Z,27.34
2019-04-11T12:53:26.560Z,26.77
2019-04-11T12:54:26.608Z,26.95
2019-04-11T12:55:26.654Z,24.16
2019-04-11T12:56:26.699Z,24.28
2019-04-11T12:57:26.745Z,25.13
2019-04-11T12:58:26.789Z,24.15
2019-04-11T12:59:26.835Z,24.57
2019-04-11T13:00:26.896Z,25.77
2019-04-11T13:01:26.949Z,26.55
2019-04-11T13:02:26.985Z,27.62
2019-04-11T13:03:27.039Z,26.06
2019-04-11T13:04:27.092Z,25.88
2019-04-11T13:05:27.130Z,26.35
2019-04-11T13:06:35.232Z,26.80
2019-04-11T13:07:27.216Z,26.02
2019-04-11T13:08:27.309Z,24.64
2019-04-11T13:09:27.309Z,24.02
2019-04-11T13:10:27.392Z,24.06
2019-04-11T13:11:27.398Z,24.30
2019-04-11T13:12:27.432Z,24.81
2019-04-11T13:13:27.475Z,25.09
2019-04-11T13:14:27.521Z,26.02
2019-04-11T13:15:27.568Z,25.54
2019-04-11T13:16:27.613Z,25.76
2019-04-11T13:17:27.659Z,25.27
2019-04-11T13:18:27.705Z,25.76
2019-04-11T13:20:27.795Z,26.43
2019-04-11T13:21:27.864Z,26.13
2019-04-11T13:22:27.886Z,26.55
2019-04-11T13:23:27.935Z,27.17
2019-04-11T13:24:27.978Z,25.61
2019-04-11T13:25:28.039Z,25.69
2019-04-11T13:26:28.069Z,25.80
2019-04-11T13:28:28.189Z,25.52
2019-04-11T13:29:28.238Z,25.98
2019-04-11T13:30:28.257Z,27.31
2019-04-11T13:31:28.328Z,28.12
2019-04-11T13:32:28.578Z,27.31
2019-04-11T13:36:28.541Z,26.84
2019-04-11T13:37:29.014Z,25.87
2019-04-11T13:38:41.976Z,26.28
2019-04-11T13:39:41.638Z,25.90
2019-04-11T13:40:28.950Z,25.67
2019-04-11T13:42:28.814Z,26.77
2019-04-11T13:43:29.084Z,27.55
2019-04-11T13:44:28.929Z,27.54
2019-04-11T13:45:28.951Z,27.81
2019-04-11T13:46:29.000Z,27.90
2019-04-11T13:47:29.043Z,27.43
2019-04-11T13:48:29.089Z,26.72
2019-04-11T13:49:29.133Z,26.29
2019-04-11T13:50:29.181Z,26.72
2019-04-11T13:51:29.231Z,26.91
2019-04-11T13:52:29.280Z,26.92
2019-04-11T13:53:29.318Z,27.19
2019-04-11T13:54:29.363Z,27.28
2019-04-11T13:55:29.411Z,27.29
2019-04-11T13:56:29.455Z,27.77
2019-04-11T13:57:29.503Z,27.25
2019-04-11T13:58:29.548Z,27.29
2019-04-11T13:59:29.593Z,26.95
2019-04-11T14:00:29.642Z,25.99
2019-04-11T14:01:29.685Z,26.12
2019-04-11T14:02:29.730Z,25.39
2019-04-11T14:03:29.775Z,25.55
2019-04-11T14:04:29.821Z,25.08
2019-04-11T14:05:29.872Z,26.10
2019-04-11T14:06:32.068Z,25.06
2019-04-11T14:07:29.959Z,24.76
2019-04-11T14:08:30.005Z,25.14
2019-04-11T14:09:30.732Z,25.43
2019-04-11T14:10:31.669Z,24.49
2019-04-11T14:11:31.604Z,25.18
2019-04-11T14:12:30.212Z,25.91
2019-04-11T14:13:31.775Z,26.94
2019-04-11T14:14:30.275Z,27.49
2019-04-11T14:15:30.320Z,26.33
2019-04-11T14:16:30.367Z,26.32
2019-04-11T14:17:30.411Z,25.43
2019-04-11T14:18:30.456Z,25.85
2019-04-11T14:19:30.523Z,26.29
2019-04-11T14:20:30.575Z,26.66